Patensie, South Africa

4:31 PM SAST on February 08, 2016 (GMT +0200)
Wavecrest | | Change Station
CLOSE
Current Station
Personal Weather Station
Location: Jeffreys Bay, EASTERN CAPE
Elevation: 236 ft
Nearby Weather Stations

Elev 236 ft 34.03 °S, 24.92 °E | Updated 15 seconds ago

Partly Cloudy
Partly Cloudy
73.9 °F
Feels Like 72 °F
N
7.2
Wind Variable Wind from SSE
Gusts 9.8 mph

Today
High -- | Low -- °F
--% Chance of Precip.
Yesterday
High -- | Low -- °F
Precip. -- in
Pressure 30.12 in
Visibility 6.2 miles
Clouds Few 2300 ft
Heat Index 72 °F
Dew Point 71 °F
Humidity 90%
Rainfall 0.00 in
Snow Depth Not available.
5:48 AM 7:20 PM
Waning Crescent, 0% visible
METAR FAPE 081400Z 15010KT 110V190 9999 FEW023 24/17 Q1020 NOSIG
Pressure 30.12 in
Visibility 6.2 miles
Clouds Few 2300 ft
Heat Index 72 °F
Dew Point 71 °F
Humidity 90%
Rainfall 0.00 in
Snow Depth Not available.
5:48 AM 7:20 PM
Waning Crescent, 0% visible
METAR FAPE 081400Z 15010KT 110V190 9999 FEW023 24/17 Q1020 NOSIG

10-Day Weather Forecast

No radar image for this location.
×

Almanac

Astronomy

Feb. 08, 2016 Rise Set
Actual Time
Civil Twilight
Nautical Twilight
Astronomical Twilight
Moon
Length of Visible Light
Length of Day
Tomorrow will be .
, % of the Moon is Illuminated

Today's Extremes

Country Highs Country Lows

Community

WunderPhotos

Upload Photos

1,891,437 photos uploaded!

WunderBlog® & News

Nearby

Air Quality

  Air Quality AQ Index Pollutant
Not available.

Snow Depth

Station Depth Elevation

Earthquake Activity

City Distance Mag. Time & Date
Minimum magnitude displayed is 2.5.

Coastal Water Temperatures

Place Temperature

Stations

Nearby Weather Stations

Station Location Temp. Windchill Dew Point Humidity Wind Precip. Elev Updated Type